This is the latest recevied weather packets stored in our database for station/object N3TTT-13. If no packets are shown the sender has not sent any weather packets the latest 10 day(s).
| Time | Temp. | Humidity | Pressure | Rain* | Wind** | Luminosity | Snow |
|---|---|---|---|---|---|---|---|
| 1777483484 | 15.56° C | 72% | 1013.7 hPa | 0 mm | - | 121 W/m² | - |
| 1777483179 | 15.56° C | 73% | 1013.5 hPa | 0 mm | - | 146 W/m² | - |
| 1777482875 | 16.11° C | 71% | 1013.8 hPa | 0 mm | - | 194 W/m² | - |
| 1777482571 | 16.11° C | 71% | 1013.5 hPa | 0 mm | - | 253 W/m² | - |
| 1777482269 | 17.22° C | 69% | 1013.8 hPa | 0 mm | - | 269 W/m² | - |
| 1777481966 | 17.22° C | 69% | 1013.8 hPa | 0 mm | - | 277 W/m² | - |
| 1777481664 | 17.22° C | 68% | 1013.8 hPa | 0 mm | - | 286 W/m² | - |
| 1777481360 | 17.22° C | 68% | 1014.1 hPa | 0 mm | - | 313 W/m² | - |
| 1777481057 | 17.22° C | 67% | 1014 hPa | 0 mm | - | 251 W/m² | - |
| 1777480754 | 18.33° C | 66% | 1014.3 hPa | 0 mm | - | 241 W/m² | - |
| 1777480450 | 18.33° C | 62% | 1014.1 hPa | 0 mm | - | 314 W/m² | - |
| 1777480146 | 18.89° C | 60% | 1014.3 hPa | 0 mm | - | 292 W/m² | - |
| 1777479843 | 18.89° C | 55% | 1014.5 hPa | 0 mm | - | 548 W/m² | - |
| 1777479540 | 17.78° C | 59% | 1014.5 hPa | 0 mm | - | 323 W/m² | - |
| 1777479237 | 17.78° C | 58% | 1014.5 hPa | 0 mm | - | 347 W/m² | - |
| 1777478934 | 17.78° C | 58% | 1014.7 hPa | 0 mm | - | 258 W/m² | - |
| 1777478630 | 17.78° C | 57% | 1014.6 hPa | 0 mm | - | 208 W/m² | - |
| 1777478327 | 17.78° C | 58% | 1014.9 hPa | 0 mm | - | 201 W/m² | - |
| 1777478024 | 17.78° C | 57% | 1014.7 hPa | 0 mm | - | 263 W/m² | - |
| 1777477718 | 17.22° C | 57% | 1014.9 hPa | 0 mm | - | 250 W/m² | - |
| 1777477416 | 17.78° C | 57% | 1015 hPa | 0 mm | - | 224 W/m² | - |
| 1777477112 | 17.22° C | 59% | 1015.1 hPa | 0 mm | - | 257 W/m² | - |
| 1777476809 | 17.78° C | 57% | 1015 hPa | 0 mm | - | 223 W/m² | - |
| 1777476507 | 17.22° C | 61% | 1015.2 hPa | 0 mm | - | 195 W/m² | - |
| 1777476203 | 17.78° C | 55% | 1015.4 hPa | 0 mm | - | 202 W/m² | - |
* Rain latest hour (hover to see other rain measurements)
** Current wind speed in m/s (hover to see current wind gust speed)